Boles, Kentucky
Current Conditions -  °F | °C
As of 7:35 PM on Thursday 27 Nov 2014 (Local Time) from KGLW Reporting Station
Overcast Overcast  
Wind Chill: 29°   Ceiling: 2800
Heat Index: 29°   Visibility: 10mi
Dew Point: 23°   Wind: 3mph
Humidity: 77%   Direction: 270°W
Pressure: 30.46"   Gusts: NA
Location:  36.7279°N, 85.6843°W
Report Text: KGLW 280135Z AUTO 27003KT 10SM OVC028 M01/M05 A3046 RMK AO2 T10151051
Loading
Personal Weather Stations






























Interactive Weather Map New forecast layout! Learn more

10-Day Weather Forecast

Advertisements
Track Severe Weather on mobile